sensor_id;sensor_type;location;lat;lon;timestamp;pressure;altitude;pressure_sealevel;temperature;humidity
9672;BME280;4874;43.568;27.824;2023-04-30T00:00:37;98612.41;;;9.57;100.00
9672;BME280;4874;43.568;27.824;2023-04-30T00:03:03;98619.34;;;9.68;100.00
9672;BME280;4874;43.568;27.824;2023-04-30T00:05:30;98618.34;;;9.69;100.00
9672;BME280;4874;43.568;27.824;2023-04-30T00:07:57;98628.75;;;9.52;100.00
9672;BME280;4874;43.568;27.824;2023-04-30T00:10:23;98615.28;;;9.46;100.00
9672;BME280;4874;43.568;27.824;2023-04-30T00:12:50;98622.78;;;9.50;100.00
9672;BME280;4874;43.568;27.824;2023-04-30T00:15:16;98626.38;;;9.49;100.00
9672;BME280;4874;43.568;27.824;2023-04-30T00:17:43;98621.78;;;9.51;100.00
9672;BME280;4874;43.568;27.824;2023-04-30T00:20:10;98625.38;;;9.60;100.00
9672;BME280;4874;43.568;27.824;2023-04-30T00:22:37;98623.72;;;9.49;100.00
9672;BME280;4874;43.568;27.824;2023-04-30T00:25:04;98621.84;;;9.42;100.00
9672;BME280;4874;43.568;27.824;2023-04-30T00:27:30;98614.28;;;9.47;100.00
9672;BME280;4874;43.568;27.824;2023-04-30T00:29:57;98615.75;;;9.59;100.00
9672;BME280;4874;43.568;27.824;2023-04-30T00:32:23;98620.81;;;9.52;100.00
9672;BME280;4874;43.568;27.824;2023-04-30T00:34:50;98628.94;;;9.41;100.00
9672;BME280;4874;43.568;27.824;2023-04-30T00:37:17;98628.53;;;9.46;100.00
9672;BME280;4874;43.568;27.824;2023-04-30T00:39:43;98618.44;;;9.49;100.00
9672;BME280;4874;43.568;27.824;2023-04-30T00:42:10;98631.19;;;9.36;100.00
9672;BME280;4874;43.568;27.824;2023-04-30T00:44:36;98616.28;;;9.35;100.00
9672;BME280;4874;43.568;27.824;2023-04-30T00:47:03;98626.88;;;9.35;100.00
9672;BME280;4874;43.568;27.824;2023-04-30T00:49:29;98626.44;;;9.40;100.00
9672;BME280;4874;43.568;27.824;2023-04-30T00:51:56;98627.28;;;9.31;100.00
9672;BME280;4874;43.568;27.824;2023-04-30T00:54:22;98627.03;;;9.24;100.00
9672;BME280;4874;43.568;27.824;2023-04-30T00:56:49;98624.00;;;9.19;100.00
9672;BME280;4874;43.568;27.824;2023-04-30T00:59:17;98625.84;;;9.09;100.00
9672;BME280;4874;43.568;27.824;2023-04-30T01:01:44;98628.78;;;9.06;100.00
9672;BME280;4874;43.568;27.824;2023-04-30T01:04:11;98625.19;;;8.98;100.00
9672;BME280;4874;43.568;27.824;2023-04-30T01:06:37;98630.78;;;8.76;100.00
9672;BME280;4874;43.568;27.824;2023-04-30T01:09:04;98625.47;;;8.85;100.00
9672;BME280;4874;43.568;27.824;2023-04-30T01:14:16;98624.66;;;8.75;100.00
9672;BME280;4874;43.568;27.824;2023-04-30T01:16:48;98627.03;;;8.69;100.00
9672;BME280;4874;43.568;27.824;2023-04-30T01:21:43;98624.53;;;8.67;100.00
9672;BME280;4874;43.568;27.824;2023-04-30T01:25:05;98620.91;;;8.68;100.00
9672;BME280;4874;43.568;27.824;2023-04-30T01:29:26;98616.00;;;8.73;100.00
9672;BME280;4874;43.568;27.824;2023-04-30T01:31:54;98611.25;;;8.86;100.00
9672;BME280;4874;43.568;27.824;2023-04-30T01:34:21;98607.22;;;8.82;100.00
9672;BME280;4874;43.568;27.824;2023-04-30T01:37:05;98608.50;;;8.69;100.00
9672;BME280;4874;43.568;27.824;2023-04-30T01:42:18;98604.28;;;8.85;100.00
9672;BME280;4874;43.568;27.824;2023-04-30T01:55:23;98601.28;;;8.61;100.00
9672;BME280;4874;43.568;27.824;2023-04-30T01:57:56;98596.13;;;8.60;100.00
9672;BME280;4874;43.568;27.824;2023-04-30T02:00:27;98593.44;;;8.69;100.00
9672;BME280;4874;43.568;27.824;2023-04-30T02:02:54;98595.44;;;8.67;100.00
9672;BME280;4874;43.568;27.824;2023-04-30T02:05:20;98602.22;;;8.79;100.00
9672;BME280;4874;43.568;27.824;2023-04-30T02:07:47;98595.69;;;8.74;100.00
9672;BME280;4874;43.568;27.824;2023-04-30T02:10:15;98596.66;;;8.73;100.00
9672;BME280;4874;43.568;27.824;2023-04-30T02:12:42;98597.94;;;8.69;100.00
9672;BME280;4874;43.568;27.824;2023-04-30T02:15:09;98596.25;;;8.68;100.00
9672;BME280;4874;43.568;27.824;2023-04-30T02:17:36;98592.22;;;8.64;100.00
9672;BME280;4874;43.568;27.824;2023-04-30T02:20:02;98589.00;;;8.70;100.00
9672;BME280;4874;43.568;27.824;2023-04-30T02:22:30;98591.53;;;8.62;100.00
9672;BME280;4874;43.568;27.824;2023-04-30T02:24:56;98595.00;;;8.53;100.00
9672;BME280;4874;43.568;27.824;2023-04-30T02:27:23;98588.16;;;8.69;100.00
9672;BME280;4874;43.568;27.824;2023-04-30T02:29:51;98582.59;;;8.72;100.00
9672;BME280;4874;43.568;27.824;2023-04-30T02:32:18;98582.59;;;8.72;100.00
9672;BME280;4874;43.568;27.824;2023-04-30T02:34:45;98590.97;;;8.58;100.00
9672;BME280;4874;43.568;27.824;2023-04-30T02:37:12;98584.44;;;8.53;100.00
9672;BME280;4874;43.568;27.824;2023-04-30T02:39:39;98585.25;;;8.63;100.00
9672;BME280;4874;43.568;27.824;2023-04-30T02:42:06;98587.91;;;8.53;100.00
9672;BME280;4874;43.568;27.824;2023-04-30T02:44:33;98583.19;;;8.57;100.00
9672;BME280;4874;43.568;27.824;2023-04-30T02:47:00;98582.19;;;8.58;100.00
9672;BME280;4874;43.568;27.824;2023-04-30T02:49:27;98588.19;;;8.60;100.00
9672;BME280;4874;43.568;27.824;2023-04-30T02:51:53;98588.19;;;8.60;100.00
9672;BME280;4874;43.568;27.824;2023-04-30T02:54:20;98578.56;;;8.68;100.00
9672;BME280;4874;43.568;27.824;2023-04-30T02:56:47;98581.75;;;8.62;100.00
9672;BME280;4874;43.568;27.824;2023-04-30T02:59:13;98584.56;;;8.61;100.00
9672;BME280;4874;43.568;27.824;2023-04-30T03:01:40;98582.59;;;8.72;100.00
9672;BME280;4874;43.568;27.824;2023-04-30T03:04:07;98589.44;;;8.65;100.00
9672;BME280;4874;43.568;27.824;2023-04-30T03:06:33;98584.56;;;8.61;100.00
9672;BME280;4874;43.568;27.824;2023-04-30T03:09:00;98581.06;;;8.70;100.00
9672;BME280;4874;43.568;27.824;2023-04-30T03:11:26;98582.19;;;8.67;100.00
9672;BME280;4874;43.568;27.824;2023-04-30T03:13:53;98585.41;;;8.52;100.00
9672;BME280;4874;43.568;27.824;2023-04-30T03:16:20;98578.16;;;8.63;100.00
9672;BME280;4874;43.568;27.824;2023-04-30T03:18:47;98581.91;;;8.61;100.00
9672;BME280;4874;43.568;27.824;2023-04-30T03:21:14;98580.41;;;8.58;100.00
9672;BME280;4874;43.568;27.824;2023-04-30T03:23:41;98584.72;;;8.40;100.00
9672;BME280;4874;43.568;27.824;2023-04-30T03:26:08;98589.56;;;8.54;100.00
9672;BME280;4874;43.568;27.824;2023-04-30T03:28:34;98599.88;;;8.57;100.00
9672;BME280;4874;43.568;27.824;2023-04-30T03:31:01;98602.22;;;8.70;100.00
9672;BME280;4874;43.568;27.824;2023-04-30T03:33:31;98607.63;;;8.78;100.00
9672;BME280;4874;43.568;27.824;2023-04-30T03:35:57;98612.94;;;8.87;100.00
9672;BME280;4874;43.568;27.824;2023-04-30T03:38:24;98615.13;;;9.01;100.00
9672;BME280;4874;43.568;27.824;2023-04-30T03:40:51;98610.41;;;9.05;100.00
9672;BME280;4874;43.568;27.824;2023-04-30T03:43:17;98617.44;;;9.14;100.00
9672;BME280;4874;43.568;27.824;2023-04-30T03:45:44;98613.59;;;8.99;100.00
9672;BME280;4874;43.568;27.824;2023-04-30T03:48:11;98610.09;;;8.98;100.00
9672;BME280;4874;43.568;27.824;2023-04-30T03:50:37;98615.94;;;9.02;100.00
9672;BME280;4874;43.568;27.824;2023-04-30T03:53:04;98615.00;;;8.93;100.00
9672;BME280;4874;43.568;27.824;2023-04-30T03:55:31;98625.75;;;8.82;100.00
9672;BME280;4874;43.568;27.824;2023-04-30T03:57:58;98618.53;;;8.84;100.00
9672;BME280;4874;43.568;27.824;2023-04-30T04:00:25;98617.94;;;8.90;100.00
9672;BME280;4874;43.568;27.824;2023-04-30T04:02:52;98625.44;;;8.95;100.00
9672;BME280;4874;43.568;27.824;2023-04-30T04:05:19;98621.28;;;8.92;100.00
9672;BME280;4874;43.568;27.824;2023-04-30T04:07:45;98617.25;;;8.98;100.00
9672;BME280;4874;43.568;27.824;2023-04-30T04:10:12;98628.53;;;8.90;100.00
9672;BME280;4874;43.568;27.824;2023-04-30T04:12:38;98621.84;;;8.96;100.00
9672;BME280;4874;43.568;27.824;2023-04-30T04:15:05;98627.59;;;8.72;100.00
9672;BME280;4874;43.568;27.824;2023-04-30T04:17:32;98630.50;;;8.79;100.00
9672;BME280;4874;43.568;27.824;2023-04-30T04:19:59;98633.25;;;8.87;100.00
9672;BME280;4874;43.568;27.824;2023-04-30T04:22:25;98627.69;;;8.90;100.00
9672;BME280;4874;43.568;27.824;2023-04-30T04:24:52;98634.34;;;9.03;100.00
9672;BME280;4874;43.568;27.824;2023-04-30T04:27:19;98636.19;;;8.84;100.00
9672;BME280;4874;43.568;27.824;2023-04-30T04:29:47;98637.72;;;8.86;100.00
9672;BME280;4874;43.568;27.824;2023-04-30T04:32:13;98636.59;;;8.98;100.00
9672;BME280;4874;43.568;27.824;2023-04-30T04:34:40;98633.63;;;9.11;100.00
9672;BME280;4874;43.568;27.824;2023-04-30T04:37:08;98642.13;;;9.14;100.00
9672;BME280;4874;43.568;27.824;2023-04-30T04:39:35;98641.13;;;9.25;100.00
9672;BME280;4874;43.568;27.824;2023-04-30T04:42:02;98639.88;;;9.19;100.00
9672;BME280;4874;43.568;27.824;2023-04-30T04:44:30;98636.22;;;9.30;100.00
9672;BME280;4874;43.568;27.824;2023-04-30T04:46:57;98644.56;;;9.35;100.00
9672;BME280;4874;43.568;27.824;2023-04-30T04:49:24;98632.28;;;9.43;100.00
9672;BME280;4874;43.568;27.824;2023-04-30T04:51:51;98635.03;;;9.51;100.00
9672;BME280;4874;43.568;27.824;2023-04-30T04:54:17;98627.75;;;9.63;100.00
9672;BME280;4874;43.568;27.824;2023-04-30T04:56:44;98634.78;;;9.72;100.00
9672;BME280;4874;43.568;27.824;2023-04-30T04:59:11;98633.53;;;9.76;100.00
9672;BME280;4874;43.568;27.824;2023-04-30T05:01:37;98633.19;;;9.89;100.00
9672;BME280;4874;43.568;27.824;2023-04-30T05:04:04;98635.78;;;9.98;100.00
9672;BME280;4874;43.568;27.824;2023-04-30T05:06:31;98635.47;;;9.84;100.00
9672;BME280;4874;43.568;27.824;2023-04-30T05:08:58;98639.66;;;10.04;100.00
9672;BME280;4874;43.568;27.824;2023-04-30T05:11:24;98637.84;;;10.04;100.00
9672;BME280;4874;43.568;27.824;2023-04-30T05:13:51;98647.53;;;10.23;100.00
9672;BME280;4874;43.568;27.824;2023-04-30T05:16:18;98648.59;;;10.30;100.00
9672;BME280;4874;43.568;27.824;2023-04-30T05:18:44;98649.44;;;10.48;100.00
9672;BME280;4874;43.568;27.824;2023-04-30T05:21:11;98656.50;;;10.57;100.00
9672;BME280;4874;43.568;27.824;2023-04-30T05:23:37;98656.03;;;10.61;100.00
9672;BME280;4874;43.568;27.824;2023-04-30T05:26:04;98655.59;;;10.66;100.00
9672;BME280;4874;43.568;27.824;2023-04-30T05:28:31;98658.47;;;10.73;100.00
9672;BME280;4874;43.568;27.824;2023-04-30T05:30:58;98661.88;;;10.83;100.00
9672;BME280;4874;43.568;27.824;2023-04-30T05:33:25;98662.06;;;10.89;100.00
9672;BME280;4874;43.568;27.824;2023-04-30T05:35:51;98660.00;;;11.01;100.00
9672;BME280;4874;43.568;27.824;2023-04-30T05:38:18;98662.66;;;11.01;100.00
9672;BME280;4874;43.568;27.824;2023-04-30T05:40:44;98657.13;;;11.12;100.00
9672;BME280;4874;43.568;27.824;2023-04-30T05:43:11;98667.84;;;11.28;100.00
9672;BME280;4874;43.568;27.824;2023-04-30T05:45:38;98668.78;;;11.44;100.00
9672;BME280;4874;43.568;27.824;2023-04-30T05:48:04;98659.38;;;11.75;100.00
9672;BME280;4874;43.568;27.824;2023-04-30T05:50:31;98667.63;;;12.06;100.00
9672;BME280;4874;43.568;27.824;2023-04-30T05:52:57;98670.66;;;12.27;100.00
9672;BME280;4874;43.568;27.824;2023-04-30T05:55:24;98658.94;;;12.62;100.00
9672;BME280;4874;43.568;27.824;2023-04-30T05:57:50;98654.78;;;12.99;100.00
9672;BME280;4874;43.568;27.824;2023-04-30T06:00:17;98653.97;;;12.99;100.00
9672;BME280;4874;43.568;27.824;2023-04-30T06:02:43;98653.63;;;13.34;100.00
9672;BME280;4874;43.568;27.824;2023-04-30T06:05:10;98651.34;;;13.23;97.96
9672;BME280;4874;43.568;27.824;2023-04-30T06:07:38;98657.13;;;13.43;97.03
9672;BME280;4874;43.568;27.824;2023-04-30T06:10:05;98657.28;;;13.41;94.58
9672;BME280;4874;43.568;27.824;2023-04-30T06:12:32;98658.78;;;13.52;96.31
9672;BME280;4874;43.568;27.824;2023-04-30T06:14:58;98656.72;;;13.78;94.59
9672;BME280;4874;43.568;27.824;2023-04-30T06:17:25;98659.59;;;13.99;92.85
9672;BME280;4874;43.568;27.824;2023-04-30T06:19:52;98658.66;;;13.84;92.74
9672;BME280;4874;43.568;27.824;2023-04-30T06:22:18;98658.66;;;14.31;91.33
9672;BME280;4874;43.568;27.824;2023-04-30T06:24:45;98660.41;;;14.07;92.02
9672;BME280;4874;43.568;27.824;2023-04-30T06:27:12;98661.94;;;14.41;90.50
9672;BME280;4874;43.568;27.824;2023-04-30T06:29:38;98654.63;;;14.65;88.26
9672;BME280;4874;43.568;27.824;2023-04-30T06:32:05;98651.91;;;14.88;86.97
9672;BME280;4874;43.568;27.824;2023-04-30T06:34:33;98657.81;;;15.20;82.62
9672;BME280;4874;43.568;27.824;2023-04-30T06:37:00;98657.53;;;15.15;80.34
9672;BME280;4874;43.568;27.824;2023-04-30T06:39:26;98655.56;;;15.32;77.92
9672;BME280;4874;43.568;27.824;2023-04-30T06:41:53;98662.94;;;15.30;77.02
9672;BME280;4874;43.568;27.824;2023-04-30T06:44:20;98656.28;;;15.26;74.03
9672;BME280;4874;43.568;27.824;2023-04-30T06:46:46;98661.06;;;15.53;74.11
9672;BME280;4874;43.568;27.824;2023-04-30T06:49:13;98661.44;;;15.50;73.16
9672;BME280;4874;43.568;27.824;2023-04-30T06:51:40;98665.88;;;15.87;70.45
9672;BME280;4874;43.568;27.824;2023-04-30T06:54:08;98664.09;;;15.50;71.46
9672;BME280;4874;43.568;27.824;2023-04-30T06:56:34;98665.50;;;15.75;69.79
9672;BME280;4874;43.568;27.824;2023-04-30T06:59:01;98664.59;;;15.97;69.44
9672;BME280;4874;43.568;27.824;2023-04-30T07:01:28;98661.88;;;16.12;68.10
9672;BME280;4874;43.568;27.824;2023-04-30T07:03:54;98662.06;;;16.10;66.58
9672;BME280;4874;43.568;27.824;2023-04-30T07:06:21;98657.78;;;16.30;66.04
9672;BME280;4874;43.568;27.824;2023-04-30T07:08:48;98669.19;;;16.03;66.19
9672;BME280;4874;43.568;27.824;2023-04-30T07:11:14;98660.41;;;16.24;65.54
9672;BME280;4874;43.568;27.824;2023-04-30T07:13:41;98666.66;;;16.31;64.99
9672;BME280;4874;43.568;27.824;2023-04-30T07:16:07;98669.03;;;16.40;64.38
9672;BME280;4874;43.568;27.824;2023-04-30T07:18:36;98669.69;;;16.42;62.65
9672;BME280;4874;43.568;27.824;2023-04-30T07:21:03;98656.28;;;16.78;60.42
9672;BME280;4874;43.568;27.824;2023-04-30T07:23:29;98669.72;;;16.13;62.81
9672;BME280;4874;43.568;27.824;2023-04-30T07:25:56;98659.22;;;16.83;63.40
9672;BME280;4874;43.568;27.824;2023-04-30T07:28:22;98670.22;;;17.09;59.96
9672;BME280;4874;43.568;27.824;2023-04-30T07:30:49;98663.50;;;17.20;58.86
9672;BME280;4874;43.568;27.824;2023-04-30T07:33:16;98667.31;;;17.11;57.53
9672;BME280;4874;43.568;27.824;2023-04-30T07:35:43;98665.94;;;17.64;57.51
9672;BME280;4874;43.568;27.824;2023-04-30T07:38:09;98669.63;;;17.97;56.49
9672;BME280;4874;43.568;27.824;2023-04-30T07:40:36;98664.91;;;17.65;56.15
9672;BME280;4874;43.568;27.824;2023-04-30T07:43:02;98664.44;;;17.89;54.96
9672;BME280;4874;43.568;27.824;2023-04-30T07:45:30;98664.09;;;17.15;53.61
9672;BME280;4874;43.568;27.824;2023-04-30T07:47:57;98656.78;;;17.51;53.78
9672;BME280;4874;43.568;27.824;2023-04-30T07:50:23;98652.81;;;17.26;52.04
9672;BME280;4874;43.568;27.824;2023-04-30T07:52:50;98652.78;;;17.75;51.79
9672;BME280;4874;43.568;27.824;2023-04-30T07:55:16;98660.47;;;17.85;52.52
9672;BME280;4874;43.568;27.824;2023-04-30T07:57:43;98657.16;;;18.17;51.88
9672;BME280;4874;43.568;27.824;2023-04-30T08:00:10;98658.91;;;17.41;47.98
9672;BME280;4874;43.568;27.824;2023-04-30T08:02:37;98658.22;;;17.54;49.32
9672;BME280;4874;43.568;27.824;2023-04-30T08:05:04;98665.88;;;17.91;49.30
9672;BME280;4874;43.568;27.824;2023-04-30T08:07:31;98663.19;;;17.57;49.83
9672;BME280;4874;43.568;27.824;2023-04-30T08:09:57;98659.53;;;17.65;49.87
9672;BME280;4874;43.568;27.824;2023-04-30T08:12:24;98652.00;;;17.81;51.12
9672;BME280;4874;43.568;27.824;2023-04-30T08:14:58;98662.28;;;18.12;51.06
9672;BME280;4874;43.568;27.824;2023-04-30T08:17:24;98657.56;;;18.20;52.15
9672;BME280;4874;43.568;27.824;2023-04-30T08:19:51;98663.38;;;17.83;52.02
9672;BME280;4874;43.568;27.824;2023-04-30T08:22:18;98644.94;;;18.14;52.72
9672;BME280;4874;43.568;27.824;2023-04-30T08:24:44;98649.38;;;18.35;52.13
9672;BME280;4874;43.568;27.824;2023-04-30T08:27:11;98645.56;;;18.16;51.93
9672;BME280;4874;43.568;27.824;2023-04-30T08:29:37;98638.38;;;17.83;52.17
9672;BME280;4874;43.568;27.824;2023-04-30T08:32:04;98650.94;;;18.10;52.68
9672;BME280;4874;43.568;27.824;2023-04-30T08:34:31;98645.63;;;18.36;53.11
9672;BME280;4874;43.568;27.824;2023-04-30T08:36:57;98653.41;;;18.58;52.77
9672;BME280;4874;43.568;27.824;2023-04-30T08:39:24;98660.13;;;18.89;53.30
9672;BME280;4874;43.568;27.824;2023-04-30T08:41:54;98645.91;;;18.41;51.86
9672;BME280;4874;43.568;27.824;2023-04-30T08:44:24;98654.66;;;18.62;52.54
9672;BME280;4874;43.568;27.824;2023-04-30T08:46:53;98639.53;;;18.48;52.13
9672;BME280;4874;43.568;27.824;2023-04-30T08:49:23;98643.34;;;18.80;50.65
9672;BME280;4874;43.568;27.824;2023-04-30T08:51:50;98640.56;;;18.54;50.58
9672;BME280;4874;43.568;27.824;2023-04-30T08:54:18;98645.41;;;18.85;50.35
9672;BME280;4874;43.568;27.824;2023-04-30T08:56:44;98635.44;;;18.65;50.36
9672;BME280;4874;43.568;27.824;2023-04-30T08:59:12;98635.56;;;18.44;50.89
9672;BME280;4874;43.568;27.824;2023-04-30T09:01:38;98639.88;;;19.32;49.99
9672;BME280;4874;43.568;27.824;2023-04-30T09:04:05;98620.59;;;19.15;49.49
9672;BME280;4874;43.568;27.824;2023-04-30T09:06:32;98633.59;;;18.86;49.56
9672;BME280;4874;43.568;27.824;2023-04-30T09:09:07;98639.22;;;19.17;49.65
9672;BME280;4874;43.568;27.824;2023-04-30T09:11:34;98633.41;;;18.94;49.85
9672;BME280;4874;43.568;27.824;2023-04-30T09:14:01;98633.41;;;18.94;49.21
9672;BME280;4874;43.568;27.824;2023-04-30T09:16:28;98638.38;;;18.97;49.52
9672;BME280;4874;43.568;27.824;2023-04-30T09:18:57;98633.22;;;19.08;49.76
9672;BME280;4874;43.568;27.824;2023-04-30T09:21:33;98625.75;;;19.56;49.76
9672;BME280;4874;43.568;27.824;2023-04-30T09:24:00;98631.59;;;19.40;48.66
9672;BME280;4874;43.568;27.824;2023-04-30T09:26:32;98627.00;;;19.21;49.66
9672;BME280;4874;43.568;27.824;2023-04-30T09:28:59;98615.81;;;19.63;48.63
9672;BME280;4874;43.568;27.824;2023-04-30T09:31:26;98611.69;;;19.02;49.18
9672;BME280;4874;43.568;27.824;2023-04-30T09:33:53;98618.31;;;19.32;48.58
9672;BME280;4874;43.568;27.824;2023-04-30T09:36:19;98620.00;;;19.39;48.97
9672;BME280;4874;43.568;27.824;2023-04-30T09:38:46;98604.47;;;20.18;48.83
9672;BME280;4874;43.568;27.824;2023-04-30T09:43:48;98596.75;;;19.58;48.78
9672;BME280;4874;43.568;27.824;2023-04-30T09:46:17;98608.03;;;19.99;49.07
9672;BME280;4874;43.568;27.824;2023-04-30T09:48:44;98616.56;;;19.96;49.31
9672;BME280;4874;43.568;27.824;2023-04-30T09:51:11;98613.50;;;19.79;49.63
9672;BME280;4874;43.568;27.824;2023-04-30T09:53:37;98609.56;;;19.82;48.93
9672;BME280;4874;43.568;27.824;2023-04-30T09:56:06;98609.13;;;19.85;48.44
9672;BME280;4874;43.568;27.824;2023-04-30T09:58:36;98608.78;;;19.49;48.35
9672;BME280;4874;43.568;27.824;2023-04-30T10:01:07;98609.84;;;19.28;48.76
9672;BME280;4874;43.568;27.824;2023-04-30T10:03:34;98618.69;;;19.81;48.69
9672;BME280;4874;43.568;27.824;2023-04-30T10:06:00;98609.41;;;19.64;48.33
9672;BME280;4874;43.568;27.824;2023-04-30T10:08:29;98599.84;;;20.32;47.84
9672;BME280;4874;43.568;27.824;2023-04-30T10:11:01;98597.28;;;20.50;46.90
9672;BME280;4874;43.568;27.824;2023-04-30T10:13:42;98597.53;;;19.84;47.87
9672;BME280;4874;43.568;27.824;2023-04-30T10:16:18;98595.22;;;20.45;47.41
9672;BME280;4874;43.568;27.824;2023-04-30T10:18:50;98606.69;;;20.34;48.08
9672;BME280;4874;43.568;27.824;2023-04-30T10:21:17;98604.63;;;20.67;47.25
9672;BME280;4874;43.568;27.824;2023-04-30T10:23:46;98594.97;;;20.84;47.25
9672;BME280;4874;43.568;27.824;2023-04-30T10:26:13;98601.34;;;20.59;47.59
9672;BME280;4874;43.568;27.824;2023-04-30T10:28:42;98605.75;;;20.16;47.37
9672;BME280;4874;43.568;27.824;2023-04-30T10:31:09;98603.34;;;20.39;47.12
9672;BME280;4874;43.568;27.824;2023-04-30T10:33:48;98603.31;;;20.45;46.88
9672;BME280;4874;43.568;27.824;2023-04-30T10:36:27;98611.44;;;20.39;46.92
9672;BME280;4874;43.568;27.824;2023-04-30T10:38:56;98598.25;;;20.24;46.78
9672;BME280;4874;43.568;27.824;2023-04-30T10:41:25;98596.66;;;19.97;46.86
9672;BME280;4874;43.568;27.824;2023-04-30T10:43:56;98596.63;;;20.85;47.23
9672;BME280;4874;43.568;27.824;2023-04-30T10:46:25;98610.19;;;20.41;47.64
9672;BME280;4874;43.568;27.824;2023-04-30T10:48:54;98593.88;;;21.23;46.64
9672;BME280;4874;43.568;27.824;2023-04-30T10:51:22;98601.75;;;21.25;46.77
9672;BME280;4874;43.568;27.824;2023-04-30T10:53:49;98599.63;;;20.33;47.01
9672;BME280;4874;43.568;27.824;2023-04-30T10:56:28;98593.25;;;20.59;47.20
9672;BME280;4874;43.568;27.824;2023-04-30T10:58:57;98584.75;;;20.62;47.44
9672;BME280;4874;43.568;27.824;2023-04-30T11:01:24;98589.22;;;20.43;47.74
9672;BME280;4874;43.568;27.824;2023-04-30T11:04:06;98591.41;;;20.90;47.12
9672;BME280;4874;43.568;27.824;2023-04-30T11:09:19;98589.47;;;21.04;47.73
9672;BME280;4874;43.568;27.824;2023-04-30T11:11:54;98599.41;;;21.03;47.63
9672;BME280;4874;43.568;27.824;2023-04-30T11:14:29;98595.84;;;20.78;47.71
9672;BME280;4874;43.568;27.824;2023-04-30T11:16:57;98594.66;;;20.68;47.82
9672;BME280;4874;43.568;27.824;2023-04-30T11:19:25;98601.06;;;20.42;47.89
9672;BME280;4874;43.568;27.824;2023-04-30T11:27:23;98596.50;;;21.30;47.70
9672;BME280;4874;43.568;27.824;2023-04-30T11:29:50;98599.16;;;20.80;47.10
9672;BME280;4874;43.568;27.824;2023-04-30T11:32:18;98592.25;;;21.16;46.79
9672;BME280;4874;43.568;27.824;2023-04-30T11:34:45;98590.09;;;21.24;46.53
9672;BME280;4874;43.568;27.824;2023-04-30T11:37:14;98598.81;;;21.01;46.42
9672;BME280;4874;43.568;27.824;2023-04-30T11:39:41;98590.22;;;20.49;46.86
9672;BME280;4874;43.568;27.824;2023-04-30T11:42:08;98586.84;;;20.91;46.78
9672;BME280;4874;43.568;27.824;2023-04-30T11:44:35;98591.94;;;21.30;47.04
9672;BME280;4874;43.568;27.824;2023-04-30T11:47:03;98591.69;;;20.82;46.71
9672;BME280;4874;43.568;27.824;2023-04-30T11:49:30;98588.53;;;20.85;46.34
9672;BME280;4874;43.568;27.824;2023-04-30T11:51:57;98579.94;;;20.95;45.66
9672;BME280;4874;43.568;27.824;2023-04-30T11:54:24;98575.13;;;20.72;46.46
9672;BME280;4874;43.568;27.824;2023-04-30T11:56:51;98579.31;;;20.68;46.94
9672;BME280;4874;43.568;27.824;2023-04-30T11:59:17;98580.91;;;20.76;46.50
9672;BME280;4874;43.568;27.824;2023-04-30T12:01:44;98583.59;;;20.82;47.27
9672;BME280;4874;43.568;27.824;2023-04-30T12:04:11;98583.03;;;20.67;46.81
9672;BME280;4874;43.568;27.824;2023-04-30T12:06:38;98585.06;;;20.78;46.98
9672;BME280;4874;43.568;27.824;2023-04-30T12:09:05;98576.19;;;21.02;46.53
9672;BME280;4874;43.568;27.824;2023-04-30T12:11:34;98571.44;;;21.23;46.31
9672;BME280;4874;43.568;27.824;2023-04-30T12:14:02;98574.50;;;21.01;45.85
9672;BME280;4874;43.568;27.824;2023-04-30T12:19:25;98574.09;;;20.42;46.36
9672;BME280;4874;43.568;27.824;2023-04-30T12:21:52;98587.84;;;20.65;46.16
9672;BME280;4874;43.568;27.824;2023-04-30T12:24:20;98584.94;;;20.91;45.95
9672;BME280;4874;43.568;27.824;2023-04-30T12:26:49;98575.75;;;21.30;45.98
9672;BME280;4874;43.568;27.824;2023-04-30T12:29:18;98576.53;;;21.31;46.16
9672;BME280;4874;43.568;27.824;2023-04-30T12:31:47;98579.63;;;21.34;46.43
9672;BME280;4874;43.568;27.824;2023-04-30T12:34:15;98577.66;;;20.67;46.64
9672;BME280;4874;43.568;27.824;2023-04-30T12:36:42;98572.53;;;20.59;46.97
9672;BME280;4874;43.568;27.824;2023-04-30T12:39:09;98575.34;;;21.02;47.56
9672;BME280;4874;43.568;27.824;2023-04-30T12:41:38;98568.56;;;21.18;46.88
9672;BME280;4874;43.568;27.824;2023-04-30T12:44:16;98566.22;;;21.03;46.79
9672;BME280;4874;43.568;27.824;2023-04-30T12:46:43;98575.22;;;20.59;47.41
9672;BME280;4874;43.568;27.824;2023-04-30T12:49:20;98571.97;;;20.82;46.76
9672;BME280;4874;43.568;27.824;2023-04-30T12:51:48;98569.47;;;20.49;47.49
9672;BME280;4874;43.568;27.824;2023-04-30T12:54:14;98565.72;;;20.81;47.65
9672;BME280;4874;43.568;27.824;2023-04-30T12:56:58;98563.72;;;21.01;47.17
9672;BME280;4874;43.568;27.824;2023-04-30T12:59:27;98566.63;;;20.69;47.47
9672;BME280;4874;43.568;27.824;2023-04-30T13:01:53;98567.41;;;21.07;47.25
9672;BME280;4874;43.568;27.824;2023-04-30T13:04:20;98566.28;;;20.28;47.75
9672;BME280;4874;43.568;27.824;2023-04-30T13:06:46;98572.34;;;20.85;47.86
9672;BME280;4874;43.568;27.824;2023-04-30T13:09:13;98564.78;;;20.69;47.37
9672;BME280;4874;43.568;27.824;2023-04-30T13:11:41;98569.31;;;20.75;47.91
9672;BME280;4874;43.568;27.824;2023-04-30T13:14:07;98569.16;;;20.70;47.89
9672;BME280;4874;43.568;27.824;2023-04-30T13:16:36;98556.97;;;20.61;48.06
9672;BME280;4874;43.568;27.824;2023-04-30T13:19:05;98564.78;;;21.25;48.61
9672;BME280;4874;43.568;27.824;2023-04-30T13:21:31;98556.13;;;21.17;47.71
9672;BME280;4874;43.568;27.824;2023-04-30T13:23:58;98553.91;;;20.82;47.86
9672;BME280;4874;43.568;27.824;2023-04-30T13:26:25;98568.91;;;20.96;47.92
9672;BME280;4874;43.568;27.824;2023-04-30T13:28:51;98559.69;;;20.86;47.47
9672;BME280;4874;43.568;27.824;2023-04-30T13:31:18;98555.81;;;20.75;48.54
9672;BME280;4874;43.568;27.824;2023-04-30T13:33:45;98560.44;;;20.93;48.23
9672;BME280;4874;43.568;27.824;2023-04-30T13:36:12;98562.72;;;21.21;47.54
9672;BME280;4874;43.568;27.824;2023-04-30T13:38:38;98552.94;;;21.01;47.98
9672;BME280;4874;43.568;27.824;2023-04-30T13:41:05;98558.94;;;20.72;47.64
9672;BME280;4874;43.568;27.824;2023-04-30T13:43:32;98557.63;;;20.50;47.43
9672;BME280;4874;43.568;27.824;2023-04-30T13:45:59;98562.78;;;20.27;48.32